Tiempo atmosférico en la estación meteorológica de Barcena de Cicero, Treto, Cantabria (10 m.)



Fecha
DESCASC
Temp. máxima en grados centígrados (hora)
DESCASC
Temp. mínima en grados centígrados (hora)
DESCASC
Temp. media en grados centígrados
DESCASC
Racha de viento máxima en m/sg (hora)
DESCASC
Velocidad máxima media en intervalos de 10 minutos(hora)
DESCASC
Precipitaciones diarias en mm
DESCASC
Precipitaciones de 00:00 a 06:00 en mm
DESCASC
Precipitaciones de 06:00 a 12:00 en mm
DESCASC
Precipitaciones de 12:00 a 18:00 en mm
DESCASC
Precipitaciones de 18:00 a 24:00 en mm
DESCASC
18-01-2018 13.5 (14:50) 3.9 (08:20) 8.7 7.22 (22:50) 3.89 (09:40) 0 0 0 0 0
17-01-2018 14.3 (00:00) 6.9 (23:59) 10.6 17.22 (00:10) 7.5 (02:30) 4.4 1.2 1 2.2 0
16-01-2018 16.3 (13:40) 13.8 (09:20) 15 13.33 (23:00) 6.39 (23:00) 0 0 0 0 0
15-01-2018 15.4 (23:59) 5.7 (08:00) 10.5 6.11 (21:10) 3.33 (08:30) 9.4 9.4 0 0 0
14-01-2018 10.2 (12:30) 8.3 (00:00) 9.3 8.06 (21:30) 4.72 (21:50) 7.2 0.6 0.6 4.6 1.4
13-01-2018 10.3 (13:20) 4.7 (00:00) 7.5 7.78 (23:50) 3.61 (22:20) 9.8 0 0 4 5.8
12-01-2018 13 (13:10) 6 (00:00) 9.5 6.94 (15:10) 4.44 (14:40) 1 1 0 0 0
11-01-2018 9.9 (21:50) 6.4 (00:00) 8.1 15.56 (16:10) 8.33 (16:50) 36.6 7.8 10.2 10.8 7.8
10-01-2018 14.3 (15:40) 4.2 (00:00) 9.3 16.67 (18:50) 7.5 (18:50) 1.2 0 0 0.6 0.6
09-01-2018 12.4 (15:20) 3.2 (00:00) 7.8 8.33 (15:20) 4.44 (12:30) 0.6 0 0 0.6 0
08-01-2018 13.4 (16:30) 4.3 (00:00) 8.8 7.22 (10:50) 4.44 (10:50) 0 0 0 0 0
07-01-2018 10.5 (15:50) 5.3 (00:00) 7.9 9.44 (01:50) 4.72 (08:10) 26.6 21 5.6 0 0
06-01-2018 8.5 (00:00) 5.8 (00:00) 7.2 6.94 (14:50) 4.17 (14:40) 36.2 7.6 9.4 8 11.2
05-01-2018 16.3 (06:50) 8.5 (00:00) 12.4 10.83 (08:10) 6.11 (08:10) 14.2 0 12 1.6 0.6
04-01-2018 19 (13:50) 9.9 (23:50) 14.4 6.94 (08:00) 4.44 (08:00) 0 0 0 0 0
03-01-2018 18.4 (07:20) 11.8 (00:00) 15.1 10 (07:30) 5.28 (07:30) 0.4 0 0 0.2 0.2
02-01-2018 19.7 (15:50) 10.9 (00:00) 15.3 6.11 (11:40) 3.61 (11:40) 8 3.2 4.4 0.4 0
01-01-2018 18.1 (13:50) 3.4 (00:00) 10.8 21.11 (16:20) 10.83 (17:10) 9.6 0 0 1.4 8.2
31-12-2017 19.4 (13:00) 5.8 (00:00) 12.6 16.67 (13:50) 7.5 (13:50) 8.2 0 0 8.2 0
30-12-2017 19.5 (14:30) 6.2 (00:00) 12.8 6.94 (11:20) 4.44 (10:50) 0 0 0 0 0
29-12-2017 18.1 (14:20) 9 (00:00) 13.6 13.89 (09:30) 6.11 (10:20) 3.4 0.4 3 0 0
28-12-2017 13.7 (12:30) 7.3 (00:00) 10.5 21.67 (14:20) 9.72 (14:20) 24.8 3 10 7.8 4
27-12-2017 11.8 (11:30) 7.3 (00:00) 9.6 21.39 (05:40) 10 (08:00) 30 11.4 6.6 9.2 2.8
26-12-2017 15.9 (21:00) 5.4 (00:00) 10.6 22.5 (23:10) 9.72 (23:10) 7.2 1 0 0 6.2
25-12-2017 17.3 (14:20) 1.6 (00:00) 9.4 13.33 (19:30) 6.94 (20:00) 4.8 0 0.2 0 4.6
24-12-2017 12.9 (15:40) 0.9 (00:00) 6.9 3.89 (05:00) 2.78 (05:10) 0 0 0 0 0
23-12-2017 11.6 (14:40) 7.3 (00:00) 9.5 5.56 (22:30) 3.33 (22:20) 0 0 0 0 0
22-12-2017 11 (15:10) 3.3 (00:00) 7.1 6.11 (05:50) 3.61 (05:50) 0 0 0 0 0

Gráficas

Temp. máximas Temp. mínimas Temp. medias Precipitaciones Rachas de viento máximas Velocidades máximas media en intervalos de 10 minutos

Datos horarios

Fecha y hora oficial Temperatura (ºC) Velocidad del viento (km/h) Dirección del viento Racha (km/h) Dirección de racha Precipitación (mm) Presión (hPa) Tendencia (hPa) Humedad (%)
2018-01-20 23:00:00 13.8 8 Sudoeste 23 Oeste 0.2 -- -- 86
2018-01-20 22:00:00 14.5 7 Oeste 23 Noroeste 0 -- -- 77
2018-01-20 21:00:00 14.7 12 Oeste 26 Noroeste 0 -- -- 75
2018-01-20 20:00:00 15.1 9 Oeste 27 Oeste 0 -- -- 72
2018-01-20 19:00:00 15.6 12 Oeste 35 Oeste 0 -- -- 69
2018-01-20 18:00:00 16.2 12 Noroeste 32 Oeste 0 -- -- 64
2018-01-20 17:00:00 16.7 18 Oeste 41 Oeste 0 -- -- 62
2018-01-20 16:00:00 16.7 14 Oeste 25 Oeste 0 -- -- 63
2018-01-20 15:00:00 15.8 11 Sudoeste 28 Oeste 0 -- -- 65
2018-01-20 14:00:00 14.5 14 Sudoeste 31 Oeste 0 -- -- 73
2018-01-20 13:00:00 15.6 12 Oeste 34 Oeste 0 -- -- 56
2018-01-20 12:00:00 15.5 15 Oeste 34 Oeste 0 -- -- 52
2018-01-20 11:00:00 13.6 12 Sudoeste 26 Oeste 0 -- -- 52
2018-01-20 10:00:00 12 9 Sudoeste 21 Oeste 0 -- -- 63
2018-01-20 09:00:00 11.3 7 Sudoeste 17 Oeste 0 -- -- 63
2018-01-20 08:00:00 8.4 4 Sudeste 16 Sur 0 -- -- 89
2018-01-20 07:00:00 8.6 8 Sur 14 Sur 0 -- -- 88
2018-01-20 06:00:00 8.6 9 Sur 14 Sur 0 -- -- 88
2018-01-20 05:00:00 8.6 3 Sur 12 Sudeste 0 -- -- 89
2018-01-20 04:00:00 9.1 9 Sur 13 Sur 0 -- -- 82
2018-01-20 03:00:00 9.6 6 Sur 12 Sur 0 -- -- 81
2018-01-20 02:00:00 -- -- -- -- -- -- -- -- --
2018-01-20 01:00:00 -- -- -- -- -- -- -- -- --
2018-01-20 00:00:00 -- -- -- -- -- -- -- -- --
2018-01-19 23:00:00 -- -- -- -- -- -- -- -- --
2018-01-19 22:00:00 -- -- -- -- -- -- -- -- --
2018-01-19 21:00:00 -- -- -- -- -- -- -- -- --
2018-01-19 20:00:00 -- -- -- -- -- -- -- -- --
2018-01-19 19:00:00 -- -- -- -- -- -- -- -- --
2018-01-19 18:00:00 -- -- -- -- -- -- -- -- --
2018-01-19 17:00:00 -- -- -- -- -- -- -- -- --
2018-01-19 16:00:00 -- -- -- -- -- -- -- -- --
2018-01-19 15:00:00 -- -- -- -- -- -- -- -- --
2018-01-19 14:00:00 -- -- -- -- -- -- -- -- --
2018-01-19 13:00:00 -- -- -- -- -- -- -- -- --
2018-01-19 12:00:00 -- -- -- -- -- -- -- -- --
2018-01-19 11:00:00 -- -- -- -- -- -- -- -- --
2018-01-19 10:00:00 -- -- -- -- -- -- -- -- --
2018-01-19 09:00:00 -- -- -- -- -- -- -- -- --
2018-01-19 08:00:00 -- -- -- -- -- -- -- -- --
2018-01-19 07:00:00 -- -- -- -- -- -- -- -- --
2018-01-19 06:00:00 -- -- -- -- -- -- -- -- --
2018-01-19 05:00:00 -- -- -- -- -- -- -- -- --
2018-01-19 04:00:00 -- -- -- -- -- -- -- -- --
2018-01-19 03:00:00 -- -- -- -- -- -- -- -- --
2018-01-19 02:00:00 12.7 5 Sudoeste 20 Oeste 0 -- -- 79
2018-01-19 01:00:00 12 4 Sudoeste 17 Oeste 0 -- -- 84
2018-01-19 00:00:00 11.9 9 Sudoeste 25 Sudoeste 0 -- -- 84
2018-01-18 23:00:00 12.2 11 Oeste 26 Noroeste 0 -- -- 80
2018-01-18 22:00:00 11.9 9 Sudoeste 20 Sudoeste 0 -- -- 84
2018-01-18 21:00:00 11.6 7 Sudoeste 19 Sudoeste 0 -- -- 83
2018-01-18 20:00:00 12.3 11 Oeste 23 Oeste 0 -- -- 73
2018-01-18 19:00:00 12 7 Sudoeste 16 Sudoeste 0 -- -- 74
2018-01-18 18:00:00 12 6 Sudoeste 17 Oeste 0 -- -- 74
2018-01-18 17:00:00 12.7 7 Oeste 21 Oeste 0 -- -- 71
2018-01-18 16:00:00 12.6 12 Noroeste 21 Noroeste 0 -- -- 71
2018-01-18 15:00:00 13.4 13 Oeste 22 Oeste 0 -- -- 67
2018-01-18 14:00:00 12.7 9 Oeste 25 Oeste 0 -- -- 68
2018-01-18 13:00:00 11.8 5 Oeste 15 Sudeste 0 -- -- 75
2018-01-18 12:00:00 9.3 12 Sudeste 19 Sudeste 0 -- -- 86
2018-01-18 11:00:00 7 12 Sur 19 Sudeste 0 -- -- 94
2018-01-18 10:00:00 4.8 12 Sur 23 Sudeste 0 -- -- 96
2018-01-18 09:00:00 3.9 12 Sur 24 Sudeste 0 -- -- 97
2018-01-18 08:00:00 4 12 Sur 21 Sudeste 0 -- -- 97
2018-01-18 07:00:00 4 12 Sur 19 Sudeste 0 -- -- 96
2018-01-18 06:00:00 4.4 9 Sur 22 Sur 0 -- -- 95
2018-01-18 05:00:00 4.8 12 Sur 21 Sudeste 0 -- -- 95
2018-01-18 04:00:00 5.1 11 Sur 22 Sudeste 0 -- -- 96
2018-01-18 03:00:00 5.2 8 Sur 16 Sudeste 0 -- -- 96
2018-01-18 02:00:00 5.7 8 Sur 16 Sur 0 -- -- 96
2018-01-18 01:00:00 6.4 8 Sur 15 Sur 0 -- -- 95
2018-01-18 00:00:00 6.9 8 Sur 12 Sur 0 -- -- 95
2018-01-17 23:00:00 8 9 Sur 10 Sur 0 -- -- 90
2018-01-17 22:00:00 9.7 5 Sur 12 Sudoeste 0 -- -- 79
2018-01-17 21:00:00 9.6 5 Sudoeste 11 Sudoeste 0 -- -- 78
2018-01-17 20:00:00 10.8 5 Sudoeste 10 Sudoeste 0 -- -- 73
2018-01-17 19:00:00 10.9 5 Sudoeste 17 Oeste 0 -- -- 73
2018-01-17 18:00:00 11.4 7 Oeste 14 Oeste 0 -- -- 77
2018-01-17 17:00:00 11.5 8 Oeste 21 Oeste 0.2 -- -- 80
2018-01-17 16:00:00 11.1 7 Oeste 32 Noroeste 0 -- -- 82
2018-01-17 15:00:00 11.2 10 Noroeste 24 Norte 0.4 -- -- 87
2018-01-17 14:00:00 11.6 14 Oeste 32 Oeste 0.6 -- -- 86
2018-01-17 13:00:00 10.7 11 Oeste 28 Oeste 1 -- -- 87
2018-01-17 12:00:00 11.6 13 Oeste 30 Sudoeste 0.2 -- -- 78
2018-01-17 11:00:00 11.8 10 Oeste 24 Oeste 0 -- -- 73
2018-01-17 10:00:00 10.6 7 Sudoeste 26 Noroeste 0 -- -- 84
2018-01-17 09:00:00 10.5 17 Noroeste 38 Noroeste 0.8 -- -- 82
2018-01-17 08:00:00 11.3 19 Oeste 47 Oeste 0 -- -- 73
2018-01-17 07:00:00 12.5 13 Oeste 42 Oeste 0 -- -- 66
2018-01-17 06:00:00 11.7 16 Oeste 48 Noroeste 0.2 -- -- 74
2018-01-17 05:00:00 12.5 19 Oeste 50 Oeste 0 -- -- 68
2018-01-17 04:00:00 12.9 20 Noroeste 50 Noroeste 0 -- -- 70
2018-01-17 03:00:00 13.1 26 Oeste 59 Noroeste 0 -- -- 77
2018-01-17 02:00:00 13.8 23 Oeste 53 Noroeste 0 -- -- 74
2018-01-17 01:00:00 13.6 18 Oeste 62 Oeste 1 -- -- 81
2018-01-17 00:00:00 14.3 19 Noroeste 41 Oeste 0 -- -- 81
2018-01-16 23:00:00 14.6 23 Oeste 48 Oeste 0 -- -- 79
2018-01-16 22:00:00 15.2 15 Oeste 36 Oeste 0 -- -- 77
2018-01-16 21:00:00 15.1 10 Oeste 28 Noroeste 0 -- -- 76
2018-01-16 20:00:00 15.2 11 Oeste 29 Oeste 0 -- -- 75
2018-01-16 19:00:00 15 9 Oeste 22 Oeste 0 -- -- 76
2018-01-16 18:00:00 15.3 13 Oeste 33 Noroeste 0 -- -- 73
2018-01-16 17:00:00 15.5 8 Oeste 26 Oeste 0 -- -- 73
2018-01-16 16:00:00 15.5 10 Oeste 24 Oeste 0 -- -- 72
2018-01-16 15:00:00 15.6 5 Oeste 26 Oeste 0 -- -- 71
2018-01-16 14:00:00 16.3 13 Oeste 25 Oeste 0 -- -- 69
2018-01-16 13:00:00 16 9 Oeste 24 Oeste 0 -- -- 69
2018-01-16 12:00:00 15.6 14 Oeste 28 Noroeste 0 -- -- 70
2018-01-16 11:00:00 14.5 8 Oeste 17 Oeste 0 -- -- 74
2018-01-16 10:00:00 13.8 9 Sudoeste 23 Oeste 0 -- -- 76
2018-01-16 09:00:00 13.9 9 Oeste 30 Oeste 0 -- -- 73
2018-01-16 08:00:00 14.4 15 Oeste 32 Oeste 0 -- -- 71
2018-01-16 07:00:00 14.5 15 Oeste 37 Oeste 0 -- -- 70
2018-01-16 06:00:00 14.6 14 Oeste 29 Oeste 0 -- -- 67
2018-01-16 05:00:00 14.5 6 Oeste 16 Oeste 0 -- -- 65
2018-01-16 04:00:00 15 6 Oeste 20 Sudoeste 0 -- -- 63
2018-01-16 03:00:00 15.3 9 Oeste 21 Oeste 0 -- -- 63
2018-01-16 02:00:00 15.5 13 Oeste 29 Oeste 0 -- -- 61
2018-01-16 01:00:00 15.5 9 Sudoeste 24 Oeste 0 -- -- 61
2018-01-16 00:00:00 15.4 9 Sudoeste 22 Sudoeste 0 -- -- 62
2018-01-15 23:00:00 15.1 7 Sudoeste 22 Sudoeste 0 -- -- 62
2018-01-15 22:00:00 15 8 Sudoeste 22 Sudoeste 0 -- -- 60
2018-01-15 21:00:00 12.9 7 Sudoeste 17 Oeste 0 -- -- 70
2018-01-15 20:00:00 12 10 Sur 17 Sudoeste 0 -- -- 69
2018-01-15 19:00:00 12 5 Sudoeste 14 Oeste 0 -- -- 61
2018-01-15 18:00:00 11.5 0 Calma 14 Sudeste 0 -- -- 73
2018-01-15 17:00:00 12.3 8 Sur 15 Sudoeste 0 -- -- 68
2018-01-15 16:00:00 12.4 6 Sur 13 Sur 0 -- -- 71
2018-01-15 15:00:00 12.6 5 Sur 9 Sudeste 0 -- -- 67
2018-01-15 14:00:00 12.4 3 Sur 13 Sudeste 0 -- -- 67
2018-01-15 13:00:00 11 8 Sudeste 16 Sudeste 0 -- -- 79
2018-01-15 12:00:00 9.3 9 Sur 18 Sudeste 0 -- -- 88
2018-01-15 11:00:00 7.4 12 Sudeste 18 Sudeste 0 -- -- 94
2018-01-15 10:00:00 6.4 10 Sur 16 Sudeste 0 -- -- 98
2018-01-15 09:00:00 5.9 4 Sudoeste 18 Sur 0 -- -- 97
2018-01-15 08:00:00 5.7 8 Sur 17 Sur 0 -- -- 97
2018-01-15 07:00:00 6.3 9 Sur 13 Sur 0 -- -- 96
2018-01-15 06:00:00 6.1 7 Sur 13 Sur 0 -- -- 94
2018-01-15 05:00:00 8 4 Sudoeste 14 Sudoeste 0 -- -- 87
2018-01-15 04:00:00 8.6 9 Sudoeste 20 Sudoeste 0.2 -- -- 94
2018-01-15 03:00:00 7.9 4 Sur 14 Sur 2 -- -- 97
2018-01-15 02:00:00 8.2 5 Este 14 Oeste 4.8 -- -- 96
2018-01-15 01:00:00 8.6 9 Sudoeste 19 Oeste 2.4 -- -- 90
2018-01-15 00:00:00 8.6 11 Sudoeste 24 Sudoeste 0 -- -- 87
2018-01-14 23:00:00 8.7 10 Sudoeste 27 Sudoeste 0 -- -- 86
2018-01-14 22:00:00 8.7 17 Oeste 29 Sudoeste 0 -- -- 87
2018-01-14 21:00:00 8.8 10 Sudoeste 24 Sudoeste 0.6 -- -- 90
2018-01-14 20:00:00 9 9 Oeste 26 Oeste 0.8 -- -- 88
2018-01-14 19:00:00 8.9 9 Oeste 23 Oeste 0 -- -- 88
2018-01-14 18:00:00 9.1 5 Oeste 23 Oeste 0.2 -- -- 87
2018-01-14 17:00:00 9.4 8 Oeste 22 Sudoeste 1 -- -- 89
2018-01-14 16:00:00 9.5 9 Oeste 25 Oeste 0 -- -- 86
2018-01-14 15:00:00 9.1 9 Sudoeste 28 Oeste 0.8 -- -- 89
2018-01-14 14:00:00 8.9 8 Sudoeste 18 Noroeste 2.4 -- -- 89
2018-01-14 13:00:00 9.8 12 Oeste 28 Oeste 0.2 -- -- 74
2018-01-14 12:00:00 9.9 12 Oeste 25 Oeste 0 -- -- 72
2018-01-14 11:00:00 8.6 11 Oeste 27 Sudoeste 0.6 -- -- 79
2018-01-14 10:00:00 8.9 9 Sudoeste 24 Oeste 0 -- -- 70
2018-01-14 09:00:00 8.8 8 Sudoeste 18 Sudoeste 0 -- -- 72
2018-01-14 08:00:00 8.6 10 Oeste 25 Oeste 0 -- -- 76
2018-01-14 07:00:00 9 8 Sudoeste 21 Oeste 0 -- -- 74
2018-01-14 06:00:00 9.1 8 Oeste 23 Oeste 0 -- -- 74
2018-01-14 05:00:00 9.3 10 Sudoeste 24 Oeste 0 -- -- 74
2018-01-14 04:00:00 9.4 12 Oeste 22 Sudoeste 0 -- -- 80
2018-01-14 03:00:00 8.8 8 Sudoeste 23 Sudoeste 0 -- -- 87
2018-01-14 02:00:00 8.4 10 Sudoeste 24 Sudoeste 0.2 -- -- 92
2018-01-14 01:00:00 8.3 10 Sudoeste 22 Oeste 0.4 -- -- 92
2018-01-14 00:00:00 8.4 9 Sudoeste 28 Oeste 0.6 -- -- 92
2018-01-13 23:00:00 8.9 8 Noroeste 26 Sudoeste 0.8 -- -- 88
2018-01-13 22:00:00 8.6 12 Sudoeste 23 Sudoeste 0.2 -- -- 91
2018-01-13 21:00:00 8.1 9 Sudoeste 19 Oeste 2.2 -- -- 92
2018-01-13 20:00:00 7.6 8 Sur 17 Sur 0.8 -- -- 93
2018-01-13 19:00:00 7.4 11 Sur 15 Sur 1.2 -- -- 92
2018-01-13 18:00:00 7.9 8 Sur 14 Sur 1 -- -- 95
2018-01-13 17:00:00 8.3 8 Sur 14 Sur 1.2 -- -- 93
2018-01-13 16:00:00 8.8 5 Sur 9 Sudeste 0.8 -- -- 93
2018-01-13 15:00:00 9.2 4 Sur 9 Sur 0.8 -- -- 87
2018-01-13 14:00:00 9.8 4 Sur 19 Sudoeste 0.2 -- -- 78
2018-01-13 13:00:00 9.5 2 Oeste 6 Noroeste 0 -- -- 86
2018-01-13 12:00:00 8.7 0 Calma 9 Noroeste 0 -- -- 86
2018-01-13 11:00:00 7.9 2 Norte 12 Sudoeste 0 -- -- 81
2018-01-13 10:00:00 6.7 6 Sudoeste 13 Sur 0 -- -- 82
2018-01-13 09:00:00 5.2 4 Sudeste 13 Oeste 0 -- -- 93
2018-01-13 08:00:00 4.7 3 Sur 8 Sur 0 -- -- 96
2018-01-13 07:00:00 4.7 3 Sudoeste 6 Oeste 0 -- -- 97
2018-01-13 06:00:00 4.9 3 Sudoeste 6 Noroeste 0 -- -- 98
2018-01-13 05:00:00 4.8 4 Sur 6 Noroeste 0 -- -- 98
2018-01-13 04:00:00 5.1 2 Noroeste 11 Sur 0 -- -- 96
2018-01-13 03:00:00 5.3 6 Sur 12 Sur 0 -- -- 95
2018-01-13 02:00:00 5.5 5 Sur 12 Sudeste 0 -- -- 94
2018-01-13 01:00:00 5.9 9 Sur 21 Sudeste 0 -- -- 90
2018-01-13 00:00:00 6.3 10 Sur 19 Sudeste 0 -- -- 92
2018-01-12 23:00:00 6.6 10 Sur 15 Sur 0 -- -- 96
2018-01-12 22:00:00 7.3 7 Sur 14 Sur 0 -- -- 96
2018-01-12 21:00:00 7.8 6 Sur 11 Sudeste 0 -- -- 96
2018-01-12 20:00:00 8.4 3 Sur 8 Sudeste 0 -- -- 92
2018-01-12 19:00:00 9.5 2 Sur 6 Oeste 0 -- -- 86
2018-01-12 18:00:00 11 0 Calma 11 Nordeste 0 -- -- 79
2018-01-12 17:00:00 11.6 3 Nordeste 18 Este 0 -- -- 78
2018-01-12 16:00:00 11.8 10 Este 25 Nordeste 0 -- -- 77
2018-01-12 15:00:00 11.8 16 Este 23 Nordeste 0 -- -- 77
2018-01-12 14:00:00 12.3 12 Nordeste 17 Nordeste 0 -- -- 74
2018-01-12 13:00:00 12.9 6 Sudeste 13 Sudeste 0 -- -- 72
2018-01-12 12:00:00 10.8 7 Sudeste 11 Sudeste 0 -- -- 92
2018-01-12 11:00:00 9.6 5 Sur 13 Sudeste 0 -- -- 96
2018-01-12 10:00:00 8.4 3 Sudoeste 9 Sur 0 -- -- 96
2018-01-12 09:00:00 8 6 Sur 8 Sur 0 -- -- 94
2018-01-12 08:00:00 8 6 Sur 9 Sudeste 0 -- -- 93
2018-01-12 07:00:00 8.8 3 Sudeste 12 Oeste 0 -- -- 92
2018-01-12 06:00:00 9.5 6 Sudoeste 23 Oeste 0 -- -- 91
2018-01-12 05:00:00 9.5 7 Oeste 17 Oeste 0.2 -- -- 93
2018-01-12 04:00:00 9.7 8 Oeste 18 Sudoeste 0 -- -- 93
2018-01-12 03:00:00 9.9 8 Oeste 20 Oeste 0 -- -- 94
2018-01-12 02:00:00 9.3 8 Oeste 19 Oeste 0 -- -- 95
2018-01-12 01:00:00 9.5 5 Oeste 21 Oeste 0.8 -- -- 95
2018-01-12 00:00:00 9.5 8 Oeste 15 Oeste 0.6 -- -- 95
2018-01-11 23:00:00 9.5 7 Oeste 19 Oeste 0.8 -- -- 95
2018-01-11 22:00:00 9.8 14 Oeste 30 Oeste 0.6 -- -- 94
2018-01-11 21:00:00 9.7 14 Noroeste 37 Oeste 3.4 -- -- 93
2018-01-11 20:00:00 9.5 18 Oeste 40 Oeste 2 -- -- 92
2018-01-11 19:00:00 9.5 19 Oeste 49 Oeste 0.4 -- -- 89
2018-01-11 18:00:00 9.3 24 Oeste 53 Oeste 1.2 -- -- 90
2018-01-11 17:00:00 9.2 25 Oeste 56 Oeste 0.2 -- -- 83
2018-01-11 16:00:00 9.7 26 Oeste 49 Oeste 0.4 -- -- 76
2018-01-11 15:00:00 9.1 19 Oeste 41 Oeste 1 -- -- 74
2018-01-11 14:00:00 7.8 11 Sudoeste 29 Oeste 3.8 -- -- 84
2018-01-11 13:00:00 7.4 12 Oeste 32 Oeste 4.2 -- -- 85
2018-01-11 12:00:00 7.1 8 Oeste 28 Oeste 5.2 -- -- 89
2018-01-11 11:00:00 7.3 14 Oeste 43 Oeste 1 -- -- 83
2018-01-11 10:00:00 6.8 18 Sudoeste 42 Sudoeste 1 -- -- 83
2018-01-11 09:00:00 6.6 13 Sudoeste 34 Oeste 2.2 -- -- 84
2018-01-11 08:00:00 6.8 17 Oeste 36 Oeste 0.4 -- -- 80
2018-01-11 07:00:00 6.4 10 Sudoeste 42 Oeste 0.4 -- -- 81
2018-01-11 06:00:00 7 15 Sudoeste 40 Oeste 1 -- -- 78
2018-01-11 05:00:00 6.9 13 Oeste 46 Oeste 3.8 -- -- 83
2018-01-11 04:00:00 7.8 8 Sudoeste 35 Oeste 1.2 -- -- 80
2018-01-11 03:00:00 7.7 13 Oeste 26 Oeste 1.6 -- -- 83
2018-01-11 02:00:00 8.1 4 Oeste 21 Noroeste 0.2 -- -- 72
2018-01-11 01:00:00 9.2 5 Sur 20 Oeste 0 -- -- 59
2018-01-11 00:00:00 9.7 9 Oeste 33 Oeste 0 -- -- 57
2018-01-10 23:00:00 9.8 17 Oeste 41 Oeste 0 -- -- 57
2018-01-10 22:00:00 9.7 23 Oeste 49 Oeste 0.2 -- -- 61
2018-01-10 21:00:00 9.9 21 Oeste 46 Oeste 0 -- -- 52
2018-01-10 20:00:00 9.1 16 Oeste 41 Oeste 0 -- -- 65
2018-01-10 19:00:00 9.3 22 Oeste 60 Oeste 0.4 -- -- 73
2018-01-10 18:00:00 10 9 Sur 28 Oeste 0.2 -- -- 79
2018-01-10 17:00:00 10.5 8 Sudoeste 22 Sur 0.2 -- -- 79
2018-01-10 16:00:00 11.7 19 Oeste 42 Oeste 0.2 -- -- 69
2018-01-10 15:00:00 12.9 4 Sudeste 22 Sur 0 -- -- 54
2018-01-10 14:00:00 12.5 4 Sur 23 Oeste 0 -- -- 58
2018-01-10 13:00:00 13.1 3 Sudeste 14 Sudeste 0 -- -- 58
2018-01-10 12:00:00 11.4 9 Sur 18 Sudeste 0 -- -- 69
2018-01-10 11:00:00 8 9 Sudeste 20 Sur 0 -- -- 82
2018-01-10 10:00:00 5 9 Sur 19 Sur 0 -- -- 91
2018-01-10 09:00:00 4.4 8 Sur 19 Sudeste 0 -- -- 90
2018-01-10 08:00:00 4.6 10 Sur 17 Sudeste 0 -- -- 92
2018-01-10 07:00:00 4.4 8 Sur 15 Sur 0 -- -- 89
2018-01-10 06:00:00 4.5 6 Sur 12 Sur 0 -- -- 86
2018-01-10 05:00:00 6.2 8 Sur 13 Sudeste 0 -- -- 82
2018-01-10 04:00:00 7.1 12 Sur 22 Sudeste 0 -- -- 77
2018-01-10 03:00:00 7.5 5 Sur 13 Sur 0 -- -- 77
2018-01-10 02:00:00 8.3 6 Sur 12 Sudoeste 0 -- -- 71
2018-01-10 01:00:00 8.1 3 Sudoeste 17 Sudeste 0 -- -- 70
2018-01-10 00:00:00 9.4 9 Sur 21 Sudeste 0 -- -- 63
2018-01-09 23:00:00 9.1 13 Sur 24 Sur 0 -- -- 64
2018-01-09 22:00:00 9.2 16 Sur 23 Sur 0 -- -- 63
2018-01-09 21:00:00 9.2 10 Sur 23 Sudeste 0 -- -- 66
2018-01-09 20:00:00 8.9 2 Sudeste 17 Sur 0 -- -- 73
2018-01-09 19:00:00 9.2 8 Sudeste 12 Sur 0 -- -- 77
2018-01-09 18:00:00 8.9 3 Sur 7 Sudeste 0 -- -- 85
2018-01-09 17:00:00 8.9 9 Sudeste 23 Sudeste 0.2 -- -- 78
2018-01-09 16:00:00 10.9 8 Sur 30 Sudoeste 0.4 -- -- 66
2018-01-09 15:00:00 11.4 5 Nordeste 10 Sudeste 0 -- -- 59
2018-01-09 14:00:00 11.2 2 Sudeste 18 Sudeste 0 -- -- 55
2018-01-09 13:00:00 10.6 12 Sudeste 27 Sudeste 0 -- -- 54
2018-01-09 12:00:00 10.5 3 Sur 7 Este 0 -- -- 60
2018-01-09 11:00:00 9.4 2 Sudeste 22 Sur 0 -- -- 63
2018-01-09 10:00:00 6 6 Sur 17 Sur 0 -- -- 84
2018-01-09 09:00:00 3.4 9 Sur 12 Sur 0 -- -- 95
2018-01-09 08:00:00 3.5 9 Sur 14 Sur 0 -- -- 93
2018-01-09 07:00:00 3.2 10 Sur 13 Sur 0 -- -- 92
2018-01-09 06:00:00 4.1 6 Sur 22 Sudeste 0 -- -- 89
2018-01-09 05:00:00 4.2 10 Sur 19 Sudeste 0 -- -- 89
2018-01-09 04:00:00 4.8 12 Sur 22 Sur 0 -- -- 90
2018-01-09 03:00:00 4.1 9 Sur 16 Sur 0 -- -- 93
2018-01-09 02:00:00 4.3 9 Sur 19 Sur 0 -- -- 93
2018-01-09 01:00:00 4.9 12 Sur 20 Sur 0 -- -- 89
2018-01-09 00:00:00 5.6 11 Sur 19 Sur 0 -- -- 85
2018-01-08 23:00:00 5.8 10 Sur 22 Sudeste 0 -- -- 85
2018-01-08 22:00:00 6.6 11 Sur 21 Sudeste 0 -- -- 86
2018-01-08 21:00:00 7.1 9 Sur 21 Sudeste 0 -- -- 85
2018-01-08 20:00:00 7.8 9 Sur 18 Sudeste 0 -- -- 85
2018-01-08 19:00:00 7.7 6 Sur 12 Sur 0 -- -- 87
2018-01-08 18:00:00 9.6 4 Sur 8 Sur 0 -- -- 77
2018-01-08 17:00:00 12.4 3 Oeste 11 Sudoeste 0 -- -- 64
2018-01-08 16:00:00 13.3 4 Sudoeste 13 Oeste 0 -- -- 58
2018-01-08 15:00:00 12.5 0 Calma 8 Sudeste 0 -- -- 63
2018-01-08 14:00:00 11.2 6 Sudeste 10 Sudeste 0 -- -- 70
2018-01-08 13:00:00 9 7 Sudeste 11 Sudeste 0 -- -- 86
2018-01-08 12:00:00 6.5 10 Sur 20 Sudeste 0 -- -- 92
2018-01-08 11:00:00 5.3 14 Sudeste 26 Sudeste 0 -- -- 95
2018-01-08 10:00:00 5 11 Sur 18 Sudeste 0 -- -- 96
2018-01-08 09:00:00 4.9 7 Sur 17 Sur 0 -- -- 97
2018-01-08 08:00:00 4.8 11 Sur 22 Sudeste 0 -- -- 97
2018-01-08 07:00:00 4.5 5 Sur 15 Sudeste 0 -- -- 97
2018-01-08 06:00:00 4.8 10 Sur 20 Sur 0 -- -- 98
2018-01-08 05:00:00 4.7 7 Sur 16 Sudeste 0 -- -- 98
2018-01-08 04:00:00 4.5 5 Sur 12 Sur 0 -- -- 98
2018-01-08 03:00:00 5 5 Sur 13 Sur 0 -- -- 97
2018-01-08 02:00:00 5 3 Sur 13 Sur 0 -- -- 98
2018-01-08 01:00:00 5.1 6 Sur 10 Sur 0 -- -- 97
2018-01-08 00:00:00 5.3 4 Sur 10 Sudeste 0 -- -- 96
2018-01-07 23:00:00 6.4 7 Sur 16 Sudeste 0 -- -- 97
2018-01-07 22:00:00 6.7 8 Sudeste 15 Sur 0 -- -- 97
2018-01-07 21:00:00 7 4 Sudoeste 8 Sudeste 0 -- -- 98
2018-01-07 20:00:00 7.5 0 Calma 6 Oeste 0 -- -- 97
2018-01-07 19:00:00 8.4 3 Oeste 5 Oeste 0 -- -- 96
2018-01-07 18:00:00 9.5 0 Calma 4 Este 0 -- -- 93
2018-01-07 17:00:00 10.3 2 Norte 5 Noroeste 0 -- -- 87
2018-01-07 16:00:00 10.4 3 Oeste 9 Sudoeste 0 -- -- 86
2018-01-07 15:00:00 10.2 3 Noroeste 8 Sudeste 0 -- -- 87
2018-01-07 14:00:00 9.9 4 Sudoeste 15 Oeste 0 -- -- 90
2018-01-07 13:00:00 9.7 6 Sudoeste 23 Oeste 0 -- -- 92
2018-01-07 12:00:00 9.3 10 Sudoeste 26 Sudoeste 0 -- -- 95
2018-01-07 11:00:00 9.1 12 Sudoeste 23 Oeste 0.4 -- -- 97
2018-01-07 10:00:00 8.6 10 Oeste 23 Oeste 1 -- -- 97
2018-01-07 09:00:00 8.7 15 Oeste 30 Oeste 1.2 -- -- 97
2018-01-07 08:00:00 8.3 15 Oeste 29 Oeste 1.8 -- -- 96
2018-01-07 07:00:00 8.2 14 Noroeste 27 Noroeste 1.2 -- -- 95
2018-01-07 06:00:00 7.7 10 Noroeste 27 Noroeste 3.4 -- -- 94
2018-01-07 05:00:00 7.7 12 Noroeste 27 Noroeste 2.6 -- -- 89
2018-01-07 04:00:00 8.2 10 Norte 28 Norte 2.4 -- -- 91
2018-01-07 03:00:00 7.4 5 Noroeste 19 Noroeste 5.6 -- -- 96
2018-01-07 02:00:00 7.4 9 Noroeste 34 Noroeste 3.6 -- -- 98
2018-01-07 01:00:00 6.6 6 Noroeste 18 Oeste 3.4 -- -- 98
2018-01-07 00:00:00 6.7 9 Oeste 19 Oeste 4.2 -- -- 98
2018-01-06 23:00:00 5.9 3 Sudeste 12 Sudeste 1.2 -- -- 99
2018-01-06 22:00:00 5.9 4 Sur 12 Sur 0.4 -- -- 98
2018-01-06 21:00:00 6 6 Sur 11 Sur 0.4 -- -- 98
2018-01-06 20:00:00 6 6 Sur 11 Sur 2.2 -- -- 98
2018-01-06 19:00:00 6 4 Sudoeste 9 Sur 2.8 -- -- 97
2018-01-06 18:00:00 6.3 0 Calma 12 Oeste 2.2 -- -- 97
2018-01-06 17:00:00 6.4 3 Sudoeste 8 Sudoeste 3.2 -- -- 96
2018-01-06 16:00:00 6.7 7 Este 21 Oeste 1.6 -- -- 94
2018-01-06 15:00:00 6.8 12 Oeste 25 Oeste 0.6 -- -- 93
2018-01-06 14:00:00 7.1 11 Oeste 20 Noroeste 0 -- -- 92
2018-01-06 13:00:00 6.9 3 Sudoeste 12 Sudeste 0.4 -- -- 94
2018-01-06 12:00:00 6.6 5 Sur 12 Sudeste 2.2 -- -- 94
2018-01-06 11:00:00 6.5 4 Sudeste 16 Sur 1.2 -- -- 94
2018-01-06 10:00:00 6.4 5 Sur 13 Sudoeste 2.8 -- -- 94
2018-01-06 09:00:00 6.6 4 Sudeste 9 Sur 1 -- -- 96
2018-01-06 08:00:00 6.7 5 Sur 16 Sur 0.2 -- -- 97
2018-01-06 07:00:00 6.7 8 Sur 15 Sudeste 2 -- -- 97
2018-01-06 06:00:00 6.7 4 Sur 12 Sur 2.6 -- -- 97
2018-01-06 05:00:00 6.9 6 Sur 10 Sur 1.6 -- -- 95
2018-01-06 04:00:00 7.1 7 Sudeste 19 Sudeste 0 -- -- 92
2018-01-06 03:00:00 7.1 9 Sudoeste 17 Sudoeste 1 -- -- 92
2018-01-06 02:00:00 7.8 4 Sudoeste 9 Oeste 1.6 -- -- 94
2018-01-06 01:00:00 8.3 4 Oeste 17 Norte 0.8 -- -- 92
2018-01-06 00:00:00 8.5 6 Sudeste 10 Sudeste 0 -- -- 90
2018-01-05 23:00:00 8.8 3 Sur 12 Sudoeste 0 -- -- 91
2018-01-05 22:00:00 8.9 6 Sur 15 Sur 0 -- -- 91
2018-01-05 21:00:00 8.8 6 Sur 12 Sudoeste 0.2 -- -- 93
2018-01-05 20:00:00 9.3 4 Noroeste 15 Sudoeste 0.4 -- -- 88
2018-01-05 19:00:00 9.8 5 Sudoeste 15 Oeste 0 -- -- 88
2018-01-05 18:00:00 10.2 9 Sudoeste 35 Oeste 1 -- -- 89
2018-01-05 17:00:00 11.4 4 Sudoeste 22 Oeste 0 -- -- 83
2018-01-05 16:00:00 12.2 5 Oeste 16 Oeste 0 -- -- 76
2018-01-05 15:00:00 12.4 4 Sur 15 Oeste 0 -- -- 86
2018-01-05 14:00:00 11.4 5 Sur 10 Sur 0 -- -- 92
2018-01-05 13:00:00 11 8 Noroeste 13 Noroeste 0.6 -- -- 93
2018-01-05 12:00:00 10.7 5 Sur 10 Sudoeste 0.2 -- -- 92
2018-01-05 11:00:00 10.5 5 Sur 14 Sudoeste 0.8 -- -- 94
2018-01-05 10:00:00 10.7 6 Sudoeste 19 Oeste 0.6 -- -- 93
2018-01-05 09:00:00 11 15 Oeste 39 Noroeste 5.8 -- -- 93
2018-01-05 08:00:00 13.4 9 Noroeste 26 Noroeste 4.6 -- -- 89
2018-01-05 07:00:00 16.2 14 Oeste 30 Sudoeste 0 -- -- 51
2018-01-05 06:00:00 10.9 4 Sur 13 Sudoeste 0 -- -- 77
2018-01-05 05:00:00 10.6 4 Oeste 9 Sudoeste 0 -- -- 77
2018-01-05 04:00:00 13.7 5 Sur 21 Sudeste 0 -- -- 65
2018-01-05 03:00:00 8.7 5 Noroeste 9 Noroeste 0 -- -- 95
2018-01-05 02:00:00 8.9 3 Oeste 8 Oeste 0 -- -- 95
2018-01-05 01:00:00 9.3 3 Oeste 6 Oeste 0 -- -- 95
2018-01-05 00:00:00 10 3 Oeste 6 Noroeste 0 -- -- 93
2018-01-04 23:00:00 10.7 4 Noroeste 7 Noroeste 0 -- -- 94
2018-01-04 22:00:00 11.5 0 Calma 6 Noroeste 0 -- -- 93
2018-01-04 21:00:00 11.9 2 Sudoeste 7 Sur 0 -- -- 91
2018-01-04 20:00:00 12.7 5 Sur 12 Sur 0 -- -- 88
2018-01-04 19:00:00 13.5 8 Sur 14 Sur 0 -- -- 82
2018-01-04 18:00:00 14.2 6 Sur 12 Sudoeste 0 -- -- 78
2018-01-04 17:00:00 16 3 Sur 9 Sudoeste 0 -- -- 73
2018-01-04 16:00:00 17.1 5 Norte 11 Norte 0 -- -- 64
2018-01-04 15:00:00 18.9 4 Este 11 Nordeste 0 -- -- 54
2018-01-04 14:00:00 19 5 Nordeste 9 Nordeste 0 -- -- 56
2018-01-04 13:00:00 18.4 2 Sur 6 Sudeste 0 -- -- 64
2018-01-04 12:00:00 15.9 6 Sudeste 14 Sudeste 0 -- -- 80
2018-01-04 11:00:00 14.1 10 Sudeste 22 Sudeste 0 -- -- 86
2018-01-04 10:00:00 12.9 10 Sur 21 Sudeste 0 -- -- 92
2018-01-04 09:00:00 12.2 12 Sur 24 Sudeste 0 -- -- 92
2018-01-04 08:00:00 11.5 16 Sudeste 25 Sudeste 0 -- -- 96
2018-01-04 07:00:00 11.8 11 Sudeste 18 Sudeste 0 -- -- 95
2018-01-04 06:00:00 11.7 5 Noroeste 18 Noroeste 0 -- -- 96
2018-01-04 05:00:00 11.3 4 Sur 17 Sudeste 0 -- -- 93
2018-01-04 04:00:00 12.2 8 Sur 22 Sudeste 0 -- -- 94
2018-01-04 03:00:00 12.6 8 Sur 14 Sudeste 0 -- -- 93
2018-01-04 02:00:00 12.5 9 Sur 18 Oeste 0 -- -- 91
2018-01-04 01:00:00 16.6 8 Oeste 21 Oeste 0 -- -- 76
2018-01-04 00:00:00 14.5 4 Sudoeste 14 Sur 0 -- -- 96
2018-01-03 23:00:00 13.3 6 Sur 10 Sudeste 0 -- -- 92
2018-01-03 22:00:00 16 5 Sur 20 Oeste 0 -- -- 82
2018-01-03 21:00:00 14.1 10 Sur 13 Sur 0 -- -- 96
2018-01-03 20:00:00 14.6 9 Sur 14 Sudoeste 0.2 -- -- 95
2018-01-03 19:00:00 15.4 8 Sur 14 Sur 0 -- -- 94
2018-01-03 18:00:00 15.2 0 Calma 8 Sudeste 0 -- -- 93
2018-01-03 17:00:00 16 0 Calma 12 Sudoeste 0.2 -- -- 91
2018-01-03 16:00:00 16.5 6 Oeste 24 Oeste 0 -- -- 84
2018-01-03 15:00:00 17.3 9 Oeste 24 Oeste 0 -- -- 79
2018-01-03 14:00:00 17.8 6 Oeste 12 Oeste 0 -- -- 78
2018-01-03 13:00:00 17.5 8 Oeste 22 Oeste 0 -- -- 79
2018-01-03 12:00:00 17.4 12 Oeste 30 Noroeste 0 -- -- 77
2018-01-03 11:00:00 17.8 9 Noroeste 23 Sudoeste 0 -- -- 75
2018-01-03 10:00:00 16.9 8 Oeste 18 Sur 0 -- -- 77
2018-01-03 09:00:00 16.9 9 Sudoeste 31 Oeste 0 -- -- 76
2018-01-03 08:00:00 17.4 10 Oeste 36 Oeste 0 -- -- 72
2018-01-03 07:00:00 17.2 11 Oeste 24 Oeste 0 -- -- 74
2018-01-03 06:00:00 14.4 8 Sur 16 Sudoeste 0 -- -- 90
2018-01-03 05:00:00 12.6 5 Sudeste 15 Sur 0 -- -- 95
2018-01-03 04:00:00 12.1 5 Sur 13 Sur 0 -- -- 96
2018-01-03 03:00:00 12.3 13 Sudeste 22 Sudeste 0 -- -- 95
2018-01-03 02:00:00 12.4 10 Sur 20 Sudeste 0 -- -- 96
2018-01-03 01:00:00 12.5 5 Sur 14 Sur 0 -- -- 97
2018-01-03 00:00:00 12.6 8 Sur 18 Sur 0 -- -- 97
2018-01-02 23:00:00 12.5 7 Sur 13 Sudeste 0 -- -- 95
2018-01-02 22:00:00 13.8 0 Calma 9 Sudeste 0 -- -- 93
2018-01-02 21:00:00 14.1 5 Sur 9 Sudeste 0 -- -- 91
2018-01-02 20:00:00 16.1 6 Oeste 14 Oeste 0 -- -- 79
2018-01-02 19:00:00 17 6 Sudoeste 19 Oeste 0 -- -- 75
2018-01-02 18:00:00 17.1 4 Oeste 10 Noroeste 0 -- -- 76
2018-01-02 17:00:00 18.2 3 Oeste 7 Norte 0 -- -- 78
2018-01-02 16:00:00 19.6 5 Oeste 17 Oeste 0 -- -- 65
2018-01-02 15:00:00 17.8 10 Sur 18 Oeste 0 -- -- 76
2018-01-02 14:00:00 16.1 8 Sur 21 Sudoeste 0 -- -- 88
2018-01-02 13:00:00 14.9 9 Sur 21 Sur 0.4 -- -- 96
2018-01-02 12:00:00 14.4 9 Sudoeste 22 Sur 0.4 -- -- 95
2018-01-02 11:00:00 14 6 Sudoeste 19 Sudoeste 3.2 -- -- 93
2018-01-02 10:00:00 14.1 10 Sur 17 Sur 0.6 -- -- 90
2018-01-02 09:00:00 13.1 8 Sur 17 Sur 0 -- -- 90
2018-01-02 08:00:00 12.3 11 Sur 16 Sur 0.2 -- -- 95
2018-01-02 07:00:00 11.4 7 Sur 19 Sur 0 -- -- 97
2018-01-02 06:00:00 11.1 7 Sur 21 Sudeste 0 -- -- 98
2018-01-02 05:00:00 10.9 9 Sur 14 Sur 0.2 -- -- 98
2018-01-02 04:00:00 10.9 5 Sur 16 Sudeste 0 -- -- 97
2018-01-02 03:00:00 11.2 8 Sudeste 14 Sudeste 0.4 -- -- 96
2018-01-02 02:00:00 11.9 6 Sudoeste 20 Sudoeste 2.4 -- -- 94
2018-01-02 01:00:00 12 4 Sudoeste 14 Sudoeste 0.2 -- -- 94
2018-01-02 00:00:00 12.3 9 Sudoeste 25 Oeste 0.6 -- -- 95
2018-01-01 23:00:00 12.3 15 Oeste 34 Oeste 3.8 -- -- 94
2018-01-01 22:00:00 12.1 12 Oeste 40 Oeste 0.8 -- -- 93
2018-01-01 21:00:00 12.2 15 Noroeste 42 Oeste 2.4 -- -- 95
2018-01-01 20:00:00 12.4 21 Oeste 57 Oeste 0.4 -- -- 89
2018-01-01 19:00:00 12.8 35 Noroeste 62 Oeste 0.2 -- -- 80
2018-01-01 18:00:00 14.8 28 Oeste 73 Noroeste 0.2 -- -- 75
2018-01-01 17:00:00 13.7 28 Noroeste 76 Noroeste 1.2 -- -- 85
2018-01-01 16:00:00 16.2 23 Noroeste 57 Noroeste 0 -- -- 59
2018-01-01 15:00:00 15.9 8 Sudoeste 28 Oeste 0 -- -- 45
2018-01-01 14:00:00 17.9 11 Oeste 33 Sudoeste 0 -- -- 39
2018-01-01 13:00:00 16.9 16 Sudoeste 33 Sudoeste 0 -- -- 39
2018-01-01 12:00:00 16.9 12 Sudoeste 29 Sudoeste 0 -- -- 40
2018-01-01 11:00:00 13.3 6 Sur 17 Sudeste 0 -- -- 51
2018-01-01 10:00:00 8.2 10 Sur 16 Sur 0 -- -- 64
2018-01-01 09:00:00 3.6 7 Sudeste 13 Sudeste 0 -- -- 83
2018-01-01 08:00:00 5.6 2 Sudoeste 18 Sudeste 0 -- -- 70
2018-01-01 07:00:00 5.8 7 Sur 18 Sudeste 0 -- -- 71
2018-01-01 06:00:00 6.1 8 Sur 18 Sudeste 0 -- -- 74
2018-01-01 05:00:00 6.7 8 Sur 12 Sudeste 0 -- -- 72
2018-01-01 04:00:00 8.8 0 Calma 14 Sudoeste 0 -- -- 60
2018-01-01 03:00:00 11.2 6 Sudoeste 20 Oeste 0 -- -- 50
2018-01-01 02:00:00 11.7 11 Sudoeste 33 Sudoeste 0 -- -- 49
2018-01-01 01:00:00 12 11 Oeste 33 Oeste 0 -- -- 48
2018-01-01 00:00:00 11.3 7 Sudoeste 20 Oeste 0 -- -- 47
2017-12-31 23:00:00 11.4 11 Sudoeste 22 Sudoeste 0 -- -- 46
2017-12-31 22:00:00 11.1 7 Sudoeste 27 Sudoeste 0 -- -- 51
2017-12-31 21:00:00 11.2 12 Oeste 35 Oeste 0 -- -- 51
2017-12-31 20:00:00 11.2 12 Oeste 34 Oeste 0 -- -- 55
2017-12-31 19:00:00 10.7 16 Oeste 52 Oeste 0 -- -- 64
2017-12-31 18:00:00 11.4 24 Oeste 54 Oeste 0.2 -- -- 66
2017-12-31 17:00:00 11.2 17 Sudoeste 39 Sudoeste 0.6 -- -- 68
2017-12-31 16:00:00 10.2 13 Sudoeste 44 Oeste 2.4 -- -- 83
2017-12-31 15:00:00 11.3 19 Oeste 36 Oeste 3.8 -- -- 87
2017-12-31 14:00:00 12.5 22 Oeste 60 Noroeste 1.2 -- -- 81
2017-12-31 13:00:00 19.4 14 Sudoeste 40 Oeste 0 -- -- 41
2017-12-31 12:00:00 17.9 15 Sudoeste 37 Sudoeste 0 -- -- 44
2017-12-31 11:00:00 17.5 12 Sudoeste 37 Sudoeste 0 -- -- 44
2017-12-31 10:00:00 14.6 6 Nordeste 22 Oeste 0 -- -- 62
2017-12-31 09:00:00 9.8 5 Norte 12 Sudoeste 0 -- -- 83
2017-12-31 08:00:00 8.1 3 Oeste 11 Sur 0 -- -- 89
2017-12-31 07:00:00 8 3 Oeste 14 Noroeste 0 -- -- 90
2017-12-31 06:00:00 7.8 5 Noroeste 15 Noroeste 0 -- -- 95
2017-12-31 05:00:00 6.8 3 Sudeste 8 Noroeste 0 -- -- 96
2017-12-31 04:00:00 6.6 0 Calma 5 Noroeste 0 -- -- 97
2017-12-31 03:00:00 6.6 2 Sudeste 6 Noroeste 0 -- -- 96
2017-12-31 02:00:00 7.1 2 Sudoeste 12 Sur 0 -- -- 95
2017-12-31 01:00:00 5.8 3 Sur 6 Sudeste 0 -- -- 98